createdAt,value
2016-05-27T00:00:00.059Z,1011.29
2016-05-27T00:01:00.077Z,1011.26
2016-05-27T00:02:00.111Z,1011.3
2016-05-27T00:03:00.145Z,1011.3
2016-05-27T00:04:00.164Z,1011.35
2016-05-27T00:05:00.181Z,1011.31
2016-05-27T00:06:00.200Z,1011.38
2016-05-27T00:07:00.234Z,1011.36
2016-05-27T00:08:00.252Z,1011.34
2016-05-27T00:09:00.286Z,1011.36
2016-05-27T00:10:00.305Z,1011.38
2016-05-27T00:11:00.338Z,1011.34
2016-05-27T00:12:00.357Z,1011.37
2016-05-27T00:13:00.374Z,1011.34
2016-05-27T00:14:00.409Z,1011.39
2016-05-27T00:15:00.427Z,1011.37
2016-05-27T00:16:00.460Z,1011.38
2016-05-27T00:17:00.479Z,1011.33
2016-05-27T00:18:00.513Z,1011.38
2016-05-27T00:19:00.532Z,1011.33
2016-05-27T00:20:00.566Z,1011.42
2016-05-27T00:21:00.584Z,1011.39
2016-05-27T00:22:00.617Z,1011.45
2016-05-27T00:23:00.636Z,1011.4
2016-05-27T00:24:00.655Z,1011.41
2016-05-27T00:25:00.688Z,1011.48
2016-05-27T00:26:00.707Z,1011.45
2016-05-27T00:27:00.740Z,1011.43
2016-05-27T00:28:00.759Z,1011.44
2016-05-27T00:29:00.792Z,1011.46
2016-05-27T00:30:00.811Z,1011.44
2016-05-27T00:31:00.845Z,1011.41
2016-05-27T00:32:00.864Z,1011.39
2016-05-27T00:33:00.881Z,1011.35
2016-05-27T00:34:00.916Z,1011.32
2016-05-27T00:35:00.933Z,1011.31
2016-05-27T00:36:00.967Z,1011.37
2016-05-27T00:37:01.017Z,1011.29
2016-05-27T00:38:01.020Z,1011.33
2016-05-27T00:39:01.069Z,1011.33
2016-05-27T00:40:01.072Z,1011.35
2016-05-27T00:41:01.091Z,1011.4
2016-05-27T00:42:01.124Z,1011.35
2016-05-27T00:43:01.143Z,1011.33
2016-05-27T00:44:01.161Z,1011.35
2016-05-27T00:45:01.196Z,1011.35
2016-05-27T00:46:01.213Z,1011.4
2016-05-27T00:47:01.247Z,1011.35
2016-05-27T00:48:01.265Z,1011.38
2016-05-27T00:49:01.816Z,1011.39
2016-05-27T00:50:01.318Z,1011.38
2016-05-27T00:51:01.337Z,1011.34
2016-05-27T00:52:01.370Z,1011.35
2016-05-27T00:53:01.388Z,1011.35
2016-05-27T00:54:01.423Z,1011.35
2016-05-27T00:55:01.440Z,1011.41
2016-05-27T00:56:01.475Z,1011.32
2016-05-27T00:57:01.493Z,1011.34
2016-05-27T00:58:01.511Z,1011.31
2016-05-27T00:59:01.546Z,1011.3
2016-05-27T01:00:01.564Z,1011.3
2016-05-27T01:01:01.597Z,1011.31
2016-05-27T01:02:01.617Z,1011.37
2016-05-27T01:03:01.650Z,1011.32
2016-05-27T01:04:01.668Z,1011.33
2016-05-27T01:05:01.702Z,1011.34
2016-05-27T01:06:01.720Z,1011.29
2016-05-27T01:07:01.755Z,1011.37
2016-05-27T01:08:01.788Z,1011.34
2016-05-27T01:09:01.791Z,1011.36
2016-05-27T01:10:01.824Z,1011.32
2016-05-27T01:11:01.843Z,1011.35
2016-05-27T01:12:01.877Z,1011.41
2016-05-27T01:13:01.896Z,1011.32
2016-05-27T01:14:01.930Z,1011.42
2016-05-27T01:15:01.947Z,1011.37
2016-05-27T01:16:01.966Z,1011.39
2016-05-27T01:17:02.000Z,1011.39
2016-05-27T01:18:02.019Z,1011.41
2016-05-27T01:19:02.052Z,1011.41
2016-05-27T01:20:02.071Z,1011.41
2016-05-27T01:21:02.104Z,1011.4
2016-05-27T01:22:02.124Z,1011.33
2016-05-27T01:23:02.156Z,1011.36
2016-05-27T01:24:02.175Z,1011.37
2016-05-27T01:25:02.193Z,1011.34
2016-05-27T01:26:02.227Z,1011.32
2016-05-27T01:27:02.246Z,1011.31
2016-05-27T01:28:02.280Z,1011.32
2016-05-27T01:29:02.298Z,1011.25
2016-05-27T01:30:02.332Z,1011.26
2016-05-27T01:31:02.350Z,1011.28
2016-05-27T01:32:02.368Z,1011.26
2016-05-27T01:33:02.403Z,1011.28
2016-05-27T01:34:02.437Z,1011.28
2016-05-27T01:35:02.455Z,1011.27
2016-05-27T01:36:02.472Z,1011.25
2016-05-27T01:37:02.507Z,1011.19
2016-05-27T01:38:02.525Z,1011.23
2016-05-27T01:39:02.544Z,1011.21
2016-05-27T01:40:02.577Z,1011.18
2016-05-27T01:41:02.596Z,1011.16
2016-05-27T01:42:02.630Z,1011.16
2016-05-27T01:43:02.648Z,1011.17
2016-05-27T01:44:02.682Z,1011.19
2016-05-27T01:45:02.700Z,1011.24
2016-05-27T01:46:02.735Z,1011.24
2016-05-27T01:47:02.752Z,1011.23
2016-05-27T01:48:02.771Z,1011.24
2016-05-27T01:49:02.807Z,1011.21
2016-05-27T01:50:02.845Z,1011.21
2016-05-27T01:51:02.914Z,1011.23
2016-05-27T01:52:02.936Z,1011.26
2016-05-27T01:53:02.989Z,1011.31
2016-05-27T01:54:03.024Z,1011.32
2016-05-27T01:55:03.081Z,1011.31
2016-05-27T01:56:03.090Z,1011.3
2016-05-27T01:57:03.132Z,1011.29
2016-05-27T01:58:03.157Z,1011.27
2016-05-27T01:59:03.181Z,1011.29
2016-05-27T02:00:03.218Z,1011.3
2016-05-27T02:01:03.240Z,1011.34
2016-05-27T02:02:03.275Z,1011.34
2016-05-27T02:03:03.297Z,1011.38
2016-05-27T02:04:03.630Z,1011.34
2016-05-27T02:05:03.351Z,1011.35
2016-05-27T02:06:03.371Z,1011.36
2016-05-27T02:07:03.406Z,1011.37
2016-05-27T02:08:03.442Z,1011.31
2016-05-27T02:09:03.459Z,1011.34
2016-05-27T02:10:03.479Z,1011.32
2016-05-27T02:11:03.512Z,1011.37
2016-05-27T02:12:03.532Z,1011.36
2016-05-27T02:13:03.550Z,1011.33
2016-05-27T02:14:03.584Z,1011.3
2016-05-27T02:15:03.602Z,1011.27
2016-05-27T02:16:03.636Z,1011.27
2016-05-27T02:17:03.655Z,1011.28
2016-05-27T02:18:03.689Z,1011.34
2016-05-27T02:19:03.724Z,1011.28
2016-05-27T02:20:03.741Z,1011.27
2016-05-27T02:21:03.759Z,1011.27
2016-05-27T02:22:03.777Z,1011.32
2016-05-27T02:23:03.812Z,1011.3
2016-05-27T02:24:03.830Z,1011.35
2016-05-27T02:25:03.864Z,1011.34
2016-05-27T02:26:03.882Z,1011.33
2016-05-27T02:27:03.915Z,1011.3
2016-05-27T02:28:03.934Z,1011.34
2016-05-27T02:29:03.953Z,1011.3
2016-05-27T02:30:03.987Z,1011.28
2016-05-27T02:31:04.005Z,1011.3
2016-05-27T02:32:04.039Z,1011.28
2016-05-27T02:33:04.056Z,1011.26
2016-05-27T02:34:04.607Z,1011.24
2016-05-27T02:35:04.109Z,1011.25
2016-05-27T02:36:04.144Z,1011.21
2016-05-27T02:37:04.161Z,1011.19
2016-05-27T02:38:04.181Z,1011.17
2016-05-27T02:39:04.214Z,1011.15
2016-05-27T02:40:04.232Z,1011.15
2016-05-27T02:41:04.266Z,1011.14
2016-05-27T02:42:04.285Z,1011.16
2016-05-27T02:43:04.303Z,1011.14
2016-05-27T02:44:04.337Z,1011.16
2016-05-27T02:45:04.355Z,1011.18
2016-05-27T02:46:04.388Z,1011.17
2016-05-27T02:47:04.407Z,1011.17
2016-05-27T02:48:04.441Z,1011.17
2016-05-27T02:49:04.632Z,1011.15
2016-05-27T02:50:04.494Z,1011.1
2016-05-27T02:51:04.512Z,1011.19
2016-05-27T02:52:04.546Z,1011.17
2016-05-27T02:53:04.565Z,1011.14
2016-05-27T02:54:04.582Z,1011.17
2016-05-27T02:55:04.616Z,1011.17
2016-05-27T02:56:04.635Z,1011.14
2016-05-27T02:57:04.653Z,1011.19
2016-05-27T02:58:04.687Z,1011.19
2016-05-27T02:59:04.706Z,1011.15
2016-05-27T03:00:04.740Z,1011.15
2016-05-27T03:01:04.758Z,1011.16
2016-05-27T03:02:04.792Z,1011.18
2016-05-27T03:03:04.810Z,1011.17
2016-05-27T03:04:04.828Z,1011.21
2016-05-27T03:05:04.862Z,1011.19
2016-05-27T03:06:04.881Z,1011.2
2016-05-27T03:07:04.915Z,1011.23
2016-05-27T03:08:04.933Z,1011.26
2016-05-27T03:09:04.967Z,1011.27
2016-05-27T03:10:04.986Z,1011.26
2016-05-27T03:11:05.003Z,1011.26
2016-05-27T03:12:05.037Z,1011.27
2016-05-27T03:13:05.055Z,1011.29
2016-05-27T03:14:05.090Z,1011.29
2016-05-27T03:15:05.108Z,1011.27
2016-05-27T03:16:05.142Z,1011.32
2016-05-27T03:17:05.160Z,1011.33
2016-05-27T03:18:05.194Z,1011.31
2016-05-27T03:19:05.213Z,1011.3
2016-05-27T03:20:05.231Z,1011.26
2016-05-27T03:21:05.265Z,1011.24
2016-05-27T03:22:05.283Z,1011.24
2016-05-27T03:23:05.317Z,1011.27
2016-05-27T03:24:05.335Z,1011.26
2016-05-27T03:25:05.354Z,1011.26
2016-05-27T03:26:05.387Z,1011.27
2016-05-27T03:27:05.406Z,1011.3
2016-05-27T03:28:05.440Z,1011.3
2016-05-27T03:29:05.458Z,1011.3
2016-05-27T03:30:05.492Z,1011.3
2016-05-27T03:31:05.510Z,1011.3
2016-05-27T03:32:05.529Z,1011.29
2016-05-27T03:33:05.562Z,1011.35
2016-05-27T03:34:05.581Z,1011.33
2016-05-27T03:35:05.615Z,1011.35
2016-05-27T03:36:05.633Z,1011.29
2016-05-27T03:37:05.667Z,1011.33
2016-05-27T03:38:05.686Z,1011.35
2016-05-27T03:39:05.703Z,1011.36
2016-05-27T03:40:05.737Z,1011.36
2016-05-27T03:41:05.756Z,1011.37
2016-05-27T03:42:05.790Z,1011.35
2016-05-27T03:43:05.808Z,1011.39
2016-05-27T03:44:05.842Z,1011.38
2016-05-27T03:45:05.861Z,1011.36
2016-05-27T03:46:05.894Z,1011.35
2016-05-27T03:47:05.913Z,1011.38
2016-05-27T03:48:05.931Z,1011.4
2016-05-27T03:49:06.230Z,1011.4
2016-05-27T03:50:05.983Z,1011.37
2016-05-27T03:51:06.017Z,1011.37
2016-05-27T03:52:06.035Z,1011.43
2016-05-27T03:53:06.054Z,1011.4
2016-05-27T03:54:06.088Z,1011.4
2016-05-27T03:55:06.106Z,1011.36
2016-05-27T03:56:06.140Z,1011.36
2016-05-27T03:57:06.158Z,1011.36
2016-05-27T03:58:06.192Z,1011.36
2016-05-27T03:59:06.210Z,1011.34
2016-05-27T04:00:06.245Z,1011.38
2016-05-27T04:01:06.262Z,1011.34
2016-05-27T04:02:06.296Z,1011.37
2016-05-27T04:03:06.315Z,1011.31
2016-05-27T04:04:06.412Z,1011.38
2016-05-27T04:05:06.367Z,1011.38
2016-05-27T04:06:06.386Z,1011.36
2016-05-27T04:07:06.420Z,1011.39
2016-05-27T04:08:06.437Z,1011.38
2016-05-27T04:09:06.456Z,1011.38
2016-05-27T04:10:06.490Z,1011.42
2016-05-27T04:11:06.509Z,1011.43
2016-05-27T04:12:06.542Z,1011.41
2016-05-27T04:13:06.561Z,1011.41
2016-05-27T04:14:06.578Z,1011.44
2016-05-27T04:15:06.613Z,1011.44
2016-05-27T04:16:06.647Z,1011.44
2016-05-27T04:17:06.666Z,1011.41
2016-05-27T04:18:06.683Z,1011.42
2016-05-27T04:19:06.702Z,1011.41
2016-05-27T04:20:06.736Z,1011.43
2016-05-27T04:21:06.754Z,1011.46
2016-05-27T04:22:06.788Z,1011.46
2016-05-27T04:23:06.807Z,1011.48
2016-05-27T04:24:06.840Z,1011.47
2016-05-27T04:25:06.859Z,1011.49
2016-05-27T04:26:06.877Z,1011.48
2016-05-27T04:27:06.910Z,1011.49
2016-05-27T04:28:06.929Z,1011.49
2016-05-27T04:29:06.963Z,1011.5
2016-05-27T04:30:06.981Z,1011.48
2016-05-27T04:31:07.015Z,1011.43
2016-05-27T04:32:07.049Z,1011.46
2016-05-27T04:33:07.051Z,1011.44
2016-05-27T04:34:07.664Z,1011.44
2016-05-27T04:35:07.120Z,1011.48
2016-05-27T04:36:07.137Z,1011.52
2016-05-27T04:37:07.156Z,1011.54
2016-05-27T04:38:07.190Z,1011.55
2016-05-27T04:39:07.209Z,1011.57
2016-05-27T04:40:07.242Z,1011.6
2016-05-27T04:41:07.261Z,1011.56
2016-05-27T04:42:07.279Z,1011.6
2016-05-27T04:43:07.314Z,1011.6
2016-05-27T04:44:07.331Z,1011.61
2016-05-27T04:45:07.366Z,1011.59
2016-05-27T04:46:07.384Z,1011.6
2016-05-27T04:47:07.402Z,1011.6
2016-05-27T04:48:07.436Z,1011.64
2016-05-27T04:49:07.688Z,1011.64
2016-05-27T04:50:07.488Z,1011.66
2016-05-27T04:51:07.507Z,1011.64
2016-05-27T04:52:07.541Z,1011.67
2016-05-27T04:53:07.558Z,1011.63
2016-05-27T04:54:07.593Z,1011.65
2016-05-27T04:55:07.611Z,1011.62
2016-05-27T04:56:07.629Z,1011.62
2016-05-27T04:57:07.663Z,1011.58
2016-05-27T04:58:07.682Z,1011.63
2016-05-27T04:59:07.700Z,1011.62
2016-05-27T05:00:07.749Z,1011.62
2016-05-27T05:01:07.768Z,1011.59
2016-05-27T05:02:07.786Z,1011.58
2016-05-27T05:03:07.804Z,1011.58
2016-05-27T05:04:07.838Z,1011.58
2016-05-27T05:05:07.856Z,1011.6
2016-05-27T05:06:07.890Z,1011.59
2016-05-27T05:07:07.909Z,1011.63
2016-05-27T05:08:07.943Z,1011.63
2016-05-27T05:09:07.976Z,1011.62
2016-05-27T05:10:07.979Z,1011.61
2016-05-27T05:11:08.014Z,1011.61
2016-05-27T05:12:08.032Z,1011.62
2016-05-27T05:13:08.067Z,1011.64
2016-05-27T05:14:08.084Z,1011.69
2016-05-27T05:15:08.118Z,1011.65
2016-05-27T05:16:08.136Z,1011.64
2016-05-27T05:17:08.155Z,1011.66
2016-05-27T05:18:08.189Z,1011.64
2016-05-27T05:19:08.207Z,1011.65
2016-05-27T05:20:08.241Z,1011.64
2016-05-27T05:21:08.258Z,1011.7
2016-05-27T05:22:08.293Z,1011.64
2016-05-27T05:23:08.311Z,1011.68
2016-05-27T05:24:08.330Z,1011.66
2016-05-27T05:25:08.363Z,1011.66
2016-05-27T05:26:08.382Z,1011.69
2016-05-27T05:27:08.416Z,1011.69
2016-05-27T05:28:08.435Z,1011.66
2016-05-27T05:29:08.469Z,1011.71
2016-05-27T05:30:08.486Z,1011.69
2016-05-27T05:31:08.521Z,1011.68
2016-05-27T05:32:08.539Z,1011.69
2016-05-27T05:33:08.557Z,1011.73
2016-05-27T05:34:09.107Z,1011.71
2016-05-27T05:35:08.610Z,1011.74
2016-05-27T05:36:08.643Z,1011.71
2016-05-27T05:37:08.662Z,1011.73
2016-05-27T05:38:08.696Z,1011.74
2016-05-27T05:39:08.714Z,1011.78
2016-05-27T05:40:08.748Z,1011.77
2016-05-27T05:41:08.766Z,1011.76
2016-05-27T05:42:08.801Z,1011.77
2016-05-27T05:43:08.818Z,1011.8
2016-05-27T05:44:08.852Z,1011.79
2016-05-27T05:45:08.870Z,1011.79
2016-05-27T05:46:08.889Z,1011.8
2016-05-27T05:47:08.922Z,1011.83
2016-05-27T05:48:08.941Z,1011.87
2016-05-27T05:49:08.959Z,1011.92
2016-05-27T05:50:08.994Z,1011.89
2016-05-27T05:51:09.011Z,1011.93
2016-05-27T05:52:09.046Z,1011.93
2016-05-27T05:53:09.063Z,1011.92
2016-05-27T05:54:09.098Z,1011.96
2016-05-27T05:55:09.116Z,1011.93
2016-05-27T05:56:09.150Z,1011.94
2016-05-27T05:57:09.168Z,1011.94
2016-05-27T05:58:09.187Z,1011.95
2016-05-27T05:59:09.221Z,1011.96
2016-05-27T06:00:09.239Z,1011.92
2016-05-27T06:01:09.274Z,1012
2016-05-27T06:02:09.291Z,1011.98
2016-05-27T06:03:09.326Z,1011.95
2016-05-27T06:04:09.343Z,1011.96
2016-05-27T06:05:11.049Z,1011.99
2016-05-27T06:06:09.396Z,1011.94
2016-05-27T06:07:09.415Z,1012.03
2016-05-27T06:08:09.448Z,1011.98
2016-05-27T06:09:09.467Z,1012.03
2016-05-27T06:10:09.501Z,1012.03
2016-05-27T06:11:09.534Z,1012.03
2016-05-27T06:12:10.224Z,1012.02
2016-05-27T06:13:09.571Z,1011.98
2016-05-27T06:14:09.589Z,1011.97
2016-05-27T06:15:09.623Z,1011.97
2016-05-27T06:16:09.641Z,1011.96
2016-05-27T06:17:09.676Z,1011.93
2016-05-27T06:18:09.694Z,1011.96
2016-05-27T06:19:09.727Z,1011.95
2016-05-27T06:20:09.747Z,1011.94
2016-05-27T06:21:09.764Z,1011.94
2016-05-27T06:22:09.798Z,1011.95
2016-05-27T06:23:09.816Z,1011.99
2016-05-27T06:24:09.850Z,1011.97
2016-05-27T06:25:09.869Z,1011.98
2016-05-27T06:26:09.902Z,1012.01
2016-05-27T06:27:09.921Z,1012.04
2016-05-27T06:28:09.955Z,1012.05
2016-05-27T06:29:09.974Z,1012.11
2016-05-27T06:30:10.007Z,1012.03
2016-05-27T06:31:10.026Z,1012.09
2016-05-27T06:32:10.044Z,1012.06
2016-05-27T06:33:10.077Z,1012.06
2016-05-27T06:34:10.112Z,1012.12
2016-05-27T06:35:10.130Z,1012.08
2016-05-27T06:36:10.148Z,1012.1
2016-05-27T06:37:10.182Z,1012.14
2016-05-27T06:38:10.201Z,1012.14
2016-05-27T06:39:10.234Z,1012.15
2016-05-27T06:40:10.254Z,1012.12
2016-05-27T06:41:10.287Z,1012.15
2016-05-27T06:42:10.305Z,1012.13
2016-05-27T06:43:10.340Z,1012.13
2016-05-27T06:44:10.357Z,1012.14
2016-05-27T06:45:10.375Z,1012.12
2016-05-27T06:46:10.409Z,1012.15
2016-05-27T06:47:10.428Z,1012.21
2016-05-27T06:48:10.462Z,1012.18
2016-05-27T06:49:10.480Z,1012.14
2016-05-27T06:50:10.514Z,1012.19
2016-05-27T06:51:10.533Z,1012.15
2016-05-27T06:52:10.566Z,1012.15
2016-05-27T06:53:10.600Z,1012.16
2016-05-27T06:54:10.619Z,1012.23
2016-05-27T06:55:10.652Z,1012.23
2016-05-27T06:56:10.672Z,1012.26
2016-05-27T06:57:10.689Z,1012.25
2016-05-27T06:58:10.724Z,1012.26
2016-05-27T06:59:10.741Z,1012.27
2016-05-27T07:00:10.774Z,1012.26
2016-05-27T07:01:10.794Z,1012.25
2016-05-27T07:02:10.828Z,1012.24
2016-05-27T07:03:10.846Z,1012.24
2016-05-27T07:04:10.879Z,1012.22
2016-05-27T07:05:10.899Z,1012.3
2016-05-27T07:06:10.932Z,1012.28
2016-05-27T07:07:10.950Z,1012.27
2016-05-27T07:08:10.985Z,1012.32
2016-05-27T07:09:11.003Z,1012.25
2016-05-27T07:10:11.037Z,1012.29
2016-05-27T07:11:11.070Z,1012.35
2016-05-27T07:12:11.089Z,1012.29
2016-05-27T07:13:11.123Z,1012.3
2016-05-27T07:14:11.141Z,1012.3
2016-05-27T07:15:11.175Z,1012.3
2016-05-27T07:16:11.193Z,1012.3
2016-05-27T07:17:11.227Z,1012.32
2016-05-27T07:18:11.246Z,1012.35
2016-05-27T07:19:11.280Z,1012.35
2016-05-27T07:20:11.298Z,1012.33
2016-05-27T07:21:11.331Z,1012.38
2016-05-27T07:22:11.351Z,1012.35
2016-05-27T07:23:11.384Z,1012.41
2016-05-27T07:24:11.402Z,1012.37
2016-05-27T07:25:11.436Z,1012.38
2016-05-27T07:26:11.470Z,1012.33
2016-05-27T07:27:11.489Z,1012.37
2016-05-27T07:28:11.522Z,1012.4
2016-05-27T07:29:11.541Z,1012.36
2016-05-27T07:30:11.575Z,1012.37
2016-05-27T07:31:11.594Z,1012.36
2016-05-27T07:32:11.627Z,1012.34
2016-05-27T07:33:11.645Z,1012.36
2016-05-27T07:34:14.492Z,1012.31
2016-05-27T07:35:11.698Z,1012.32
2016-05-27T07:36:11.732Z,1012.28
2016-05-27T07:37:11.766Z,1012.3
2016-05-27T07:38:11.784Z,1012.32
2016-05-27T07:39:11.817Z,1012.29
2016-05-27T07:40:11.837Z,1012.29
2016-05-27T07:41:11.870Z,1012.31
2016-05-27T07:42:11.888Z,1012.25
2016-05-27T07:43:11.922Z,1012.3
2016-05-27T07:44:11.973Z,1012.24
2016-05-27T07:45:11.974Z,1012.3
2016-05-27T07:46:12.009Z,1012.32
2016-05-27T07:47:12.027Z,1012.24
2016-05-27T07:48:12.061Z,1012.23
2016-05-27T07:49:14.266Z,1012.22
2016-05-27T07:50:12.114Z,1012.16
2016-05-27T07:51:12.131Z,1012.19
2016-05-27T07:52:12.164Z,1012.19
2016-05-27T07:53:12.199Z,1012.18
2016-05-27T07:54:12.217Z,1012.14
2016-05-27T07:55:12.251Z,1012.15
2016-05-27T07:56:12.269Z,1012.16
2016-05-27T07:57:12.303Z,1012.15
2016-05-27T07:58:12.338Z,1012.17
2016-05-27T07:59:12.355Z,1012.15
2016-05-27T08:00:12.391Z,1012.14
2016-05-27T08:01:12.408Z,1012.14
2016-05-27T08:02:12.441Z,1012.17
2016-05-27T08:03:12.460Z,1012.18
2016-05-27T08:04:12.494Z,1012.18
2016-05-27T08:05:12.529Z,1012.19
2016-05-27T08:06:12.546Z,1012.17
2016-05-27T08:07:12.580Z,1012.2
2016-05-27T08:08:12.614Z,1012.21
2016-05-27T08:09:12.633Z,1012.2
2016-05-27T08:10:12.667Z,1012.2
2016-05-27T08:11:12.685Z,1012.21
2016-05-27T08:12:12.718Z,1012.15
2016-05-27T08:13:12.738Z,1012.16
2016-05-27T08:14:12.771Z,1012.13
2016-05-27T08:15:12.837Z,1012.13
2016-05-27T08:16:12.823Z,1012.09
2016-05-27T08:17:12.857Z,1012.1
2016-05-27T08:18:12.892Z,1012.09
2016-05-27T08:19:12.909Z,1012.09
2016-05-27T08:20:12.944Z,1012.08
2016-05-27T08:21:12.962Z,1012.05
2016-05-27T08:22:12.995Z,1012.07
2016-05-27T08:23:13.031Z,1012.07
2016-05-27T08:24:13.048Z,1012.07
2016-05-27T08:25:13.082Z,1012.08
2016-05-27T08:26:13.100Z,1012.09
2016-05-27T08:27:13.134Z,1012.1
2016-05-27T08:28:13.169Z,1012.07
2016-05-27T08:29:13.186Z,1012.07
2016-05-27T08:30:13.221Z,1012.11
2016-05-27T08:31:13.255Z,1012.14
2016-05-27T08:32:13.272Z,1012.06
2016-05-27T08:33:13.307Z,1012.07
2016-05-27T08:34:13.325Z,1012.13
2016-05-27T08:35:13.360Z,1012.1
2016-05-27T08:36:13.393Z,1012.09
2016-05-27T08:37:13.411Z,1012.06
2016-05-27T08:38:13.445Z,1012.04
2016-05-27T08:39:13.479Z,1012.08
2016-05-27T08:40:13.498Z,1012.08
2016-05-27T08:41:13.532Z,1012.08
2016-05-27T08:42:13.549Z,1012.05
2016-05-27T08:43:13.584Z,1012.07
2016-05-27T08:44:13.618Z,1012.06
2016-05-27T08:45:13.636Z,1012.07
2016-05-27T08:46:13.670Z,1012.1
2016-05-27T08:47:13.704Z,1012.09
2016-05-27T08:48:13.722Z,1012.09
2016-05-27T08:49:13.756Z,1012.07
2016-05-27T08:50:13.790Z,1012.14
2016-05-27T08:51:13.809Z,1012.09
2016-05-27T08:52:13.843Z,1012.09
2016-05-27T08:53:13.861Z,1012.14
2016-05-27T08:54:13.895Z,1012.11
2016-05-27T08:55:13.928Z,1012.11
2016-05-27T08:56:13.947Z,1012.12
2016-05-27T08:57:13.981Z,1012.12
2016-05-27T08:58:13.999Z,1012.14
2016-05-27T08:59:14.033Z,1012.12
2016-05-27T09:00:14.066Z,1012.09
2016-05-27T09:01:14.086Z,1012.04
2016-05-27T09:02:14.119Z,1012.12
2016-05-27T09:03:14.153Z,1012.11
2016-05-27T09:04:14.172Z,1012.08
2016-05-27T09:05:14.205Z,1012.13
2016-05-27T09:06:14.239Z,1012.09
2016-05-27T09:07:14.258Z,1012.09
2016-05-27T09:08:14.291Z,1012.13
2016-05-27T09:09:14.326Z,1012.13
2016-05-27T09:10:14.344Z,1012.13
2016-05-27T09:11:14.377Z,1012.15
2016-05-27T09:12:14.396Z,1012.17
2016-05-27T09:13:14.429Z,1012.17
2016-05-27T09:14:14.449Z,1012.15
2016-05-27T09:15:14.498Z,1012.18
2016-05-27T09:16:14.625Z,1012.16
2016-05-27T09:17:14.550Z,1012.17
2016-05-27T09:18:14.585Z,1012.19
2016-05-27T09:19:15.478Z,1012.23
2016-05-27T09:20:14.870Z,1012.24
2016-05-27T09:21:14.654Z,1012.25
2016-05-27T09:22:14.688Z,1012.26
2016-05-27T09:23:14.707Z,1012.24
2016-05-27T09:24:14.757Z,1012.25
2016-05-27T09:25:14.759Z,1012.21
2016-05-27T09:26:14.793Z,1012.21
2016-05-27T09:27:14.827Z,1012.21
2016-05-27T09:28:14.845Z,1012.21
2016-05-27T09:29:14.880Z,1012.22
2016-05-27T09:30:14.913Z,1012.22
2016-05-27T09:31:14.931Z,1012.22
2016-05-27T09:32:14.966Z,1012.19
2016-05-27T09:33:14.999Z,1012.2
2016-05-27T09:34:15.033Z,1012.2
2016-05-27T09:35:15.052Z,1012.2
2016-05-27T09:36:15.070Z,1012.19
2016-05-27T09:37:15.104Z,1012.21
2016-05-27T09:38:15.138Z,1012.2
2016-05-27T09:39:15.157Z,1012.16
2016-05-27T09:40:15.221Z,1012.18
2016-05-27T09:41:15.208Z,1012.17
2016-05-27T09:42:15.243Z,1012.12
2016-05-27T09:43:15.276Z,1012.13
2016-05-27T09:44:15.295Z,1012.13
2016-05-27T09:45:15.329Z,1012.18
2016-05-27T09:46:15.362Z,1012.17
2016-05-27T09:47:15.381Z,1012.13
2016-05-27T09:48:15.415Z,1012.16
2016-05-27T09:49:18.651Z,1012.13
2016-05-27T09:50:15.467Z,1012.15
2016-05-27T09:51:15.501Z,1012.09
2016-05-27T09:52:15.519Z,1012.12
2016-05-27T09:53:15.553Z,1012.13
2016-05-27T09:54:15.587Z,1012.13
2016-05-27T09:55:15.606Z,1012.13
2016-05-27T09:56:15.655Z,1012.13
2016-05-27T09:57:15.673Z,1012.12
2016-05-27T09:58:15.691Z,1012.14
2016-05-27T09:59:15.726Z,1012.11
2016-05-27T10:00:15.744Z,1012.09
2016-05-27T10:01:15.778Z,1012.09
2016-05-27T10:02:15.811Z,1012.09
2016-05-27T10:03:15.846Z,1012.07
2016-05-27T10:04:15.879Z,1012.08
2016-05-27T10:05:15.898Z,1012.04
2016-05-27T10:06:15.917Z,1012.01
2016-05-27T10:07:15.950Z,1012.02
2016-05-27T10:08:15.968Z,1012.03
2016-05-27T10:09:16.002Z,1012.01
2016-05-27T10:10:16.035Z,1011.98
2016-05-27T10:11:16.054Z,1012
2016-05-27T10:12:16.089Z,1012
2016-05-27T10:13:16.123Z,1011.98
2016-05-27T10:14:16.141Z,1011.99
2016-05-27T10:15:16.174Z,1011.97
2016-05-27T10:16:16.209Z,1012
2016-05-27T10:17:16.243Z,1011.99
2016-05-27T10:18:16.262Z,1012
2016-05-27T10:19:16.857Z,1012.01
2016-05-27T10:20:16.329Z,1012.03
2016-05-27T10:21:16.347Z,1012.04
2016-05-27T10:22:16.365Z,1012.04
2016-05-27T10:23:16.400Z,1012.03
2016-05-27T10:24:16.434Z,1012.05
2016-05-27T10:25:16.451Z,1012.06
2016-05-27T10:26:16.486Z,1012.04
2016-05-27T10:27:16.504Z,1012.05
2016-05-27T10:28:16.538Z,1012.01
2016-05-27T10:29:16.572Z,1012.05
2016-05-27T10:30:16.590Z,1011.98
2016-05-27T10:31:16.624Z,1012
2016-05-27T10:32:16.642Z,1011.96
2016-05-27T10:33:16.677Z,1012
2016-05-27T10:34:16.788Z,1011.97
2016-05-27T10:35:17.228Z,1012
2016-05-27T10:36:16.778Z,1012
2016-05-27T10:37:16.780Z,1011.99
2016-05-27T10:38:16.816Z,1011.98
2016-05-27T10:39:16.849Z,1011.97
2016-05-27T10:40:16.866Z,1011.97
2016-05-27T10:41:16.902Z,1011.97
2016-05-27T10:42:19.029Z,1011.93
2016-05-27T10:43:16.954Z,1011.93
2016-05-27T10:44:16.988Z,1011.95
2016-05-27T10:45:17.005Z,1011.91
2016-05-27T10:46:17.040Z,1011.92
2016-05-27T10:47:17.073Z,1011.9
2016-05-27T10:48:17.092Z,1011.92
2016-05-27T10:49:17.125Z,1011.93
2016-05-27T10:50:17.143Z,1011.92
2016-05-27T10:51:17.179Z,1011.89
2016-05-27T10:52:17.212Z,1011.91
2016-05-27T10:53:17.230Z,1011.95
2016-05-27T10:54:17.264Z,1011.96
2016-05-27T10:55:17.298Z,1011.96
2016-05-27T10:56:17.342Z,1011.95
2016-05-27T10:57:17.402Z,1011.95
2016-05-27T10:58:17.446Z,1011.98
2016-05-27T10:59:17.520Z,1011.95
2016-05-27T11:00:17.565Z,1011.96
2016-05-27T11:01:17.593Z,1011.96
2016-05-27T11:02:17.636Z,1011.93
2016-05-27T11:03:17.664Z,1011.93
2016-05-27T11:04:17.706Z,1011.9
2016-05-27T11:05:17.750Z,1011.92
2016-05-27T11:06:17.772Z,1011.9
2016-05-27T11:07:17.809Z,1011.88
2016-05-27T11:08:17.846Z,1011.86
2016-05-27T11:09:17.883Z,1011.89
2016-05-27T11:10:17.906Z,1011.91
2016-05-27T11:11:17.925Z,1011.9
2016-05-27T11:12:17.976Z,1011.88
2016-05-27T11:13:17.994Z,1011.9
2016-05-27T11:14:18.015Z,1011.87
2016-05-27T11:15:18.613Z,1011.88
2016-05-27T11:16:18.069Z,1011.86
2016-05-27T11:17:18.103Z,1011.88
2016-05-27T11:18:18.136Z,1011.92
2016-05-27T11:19:18.156Z,1011.88
2016-05-27T11:20:22.846Z,1011.89
2016-05-27T11:21:18.224Z,1011.89
2016-05-27T11:22:18.243Z,1011.86
2016-05-27T11:23:18.277Z,1011.88
2016-05-27T11:24:18.311Z,1011.88
2016-05-27T11:25:19.659Z,1011.87
2016-05-27T11:26:18.396Z,1011.86
2016-05-27T11:27:18.383Z,1011.86
2016-05-27T11:28:18.416Z,1011.88
2016-05-27T11:29:18.450Z,1011.83
2016-05-27T11:30:19.656Z,1011.84
2016-05-27T11:31:18.502Z,1011.8
2016-05-27T11:32:18.521Z,1011.79
2016-05-27T11:33:18.554Z,1011.8
2016-05-27T11:34:18.574Z,1011.8
2016-05-27T11:35:19.701Z,1011.76
2016-05-27T11:36:18.640Z,1011.76
2016-05-27T11:37:18.707Z,1011.77
2016-05-27T11:38:18.691Z,1011.73
2016-05-27T11:39:18.709Z,1011.71
2016-05-27T11:40:19.324Z,1011.72
2016-05-27T11:41:18.779Z,1011.7
2016-05-27T11:42:18.814Z,1011.72
2016-05-27T11:43:18.832Z,1011.69
2016-05-27T11:44:18.865Z,1011.68
2016-05-27T11:45:18.884Z,1011.64
2016-05-27T11:46:18.918Z,1011.65
2016-05-27T11:47:18.952Z,1011.63
2016-05-27T11:48:18.970Z,1011.63
2016-05-27T11:49:19.020Z,1011.63
2016-05-27T11:50:19.022Z,1011.64
2016-05-27T11:51:19.057Z,1011.68
2016-05-27T11:52:19.106Z,1011.63
2016-05-27T11:53:19.108Z,1011.6
2016-05-27T11:54:19.142Z,1011.59
2016-05-27T11:55:20.849Z,1011.64
2016-05-27T11:56:19.194Z,1011.54
2016-05-27T11:57:19.229Z,1011.57
2016-05-27T11:58:19.263Z,1011.55
2016-05-27T11:59:19.280Z,1011.58
2016-05-27T12:00:20.488Z,1011.58
2016-05-27T12:01:19.333Z,1011.61
2016-05-27T12:02:19.368Z,1011.63
2016-05-27T12:03:19.385Z,1011.64
2016-05-27T12:04:19.591Z,1011.64
2016-05-27T12:05:20.282Z,1011.59
2016-05-27T12:06:19.488Z,1011.65
2016-05-27T12:07:19.506Z,1011.62
2016-05-27T12:08:19.540Z,1011.6